sensor_id;sensor_type;location;lat;lon;timestamp;pressure;altitude;pressure_sealevel;temperature;humidity
7026;BME280;3554;42.132;24.786;2022-08-05T00:02:24;99360.44;;;24.83;100.00
7026;BME280;3554;42.132;24.786;2022-08-05T00:04:52;99359.22;;;24.78;100.00
7026;BME280;3554;42.132;24.786;2022-08-05T00:07:19;99358.75;;;24.82;100.00
7026;BME280;3554;42.132;24.786;2022-08-05T00:09:45;99364.44;;;24.79;100.00
7026;BME280;3554;42.132;24.786;2022-08-05T00:12:12;99365.03;;;24.73;100.00
7026;BME280;3554;42.132;24.786;2022-08-05T00:14:39;99316.75;;;24.38;100.00
7026;BME280;3554;42.132;24.786;2022-08-05T00:17:06;99353.41;;;24.55;100.00
7026;BME280;3554;42.132;24.786;2022-08-05T00:19:33;99349.91;;;24.55;100.00
7026;BME280;3554;42.132;24.786;2022-08-05T00:22:02;99344.50;;;24.37;100.00
7026;BME280;3554;42.132;24.786;2022-08-05T00:24:29;99353.03;;;24.23;100.00
7026;BME280;3554;42.132;24.786;2022-08-05T00:26:56;99338.78;;;23.95;100.00
7026;BME280;3554;42.132;24.786;2022-08-05T00:29:23;99346.09;;;24.03;100.00
7026;BME280;3554;42.132;24.786;2022-08-05T00:31:49;99336.06;;;24.05;100.00
7026;BME280;3554;42.132;24.786;2022-08-05T00:34:16;99343.81;;;24.08;100.00
7026;BME280;3554;42.132;24.786;2022-08-05T00:36:43;99332.19;;;23.90;100.00
7026;BME280;3554;42.132;24.786;2022-08-05T00:39:11;99335.72;;;23.81;100.00
7026;BME280;3554;42.132;24.786;2022-08-05T00:41:38;99332.66;;;23.76;100.00
7026;BME280;3554;42.132;24.786;2022-08-05T00:44:05;99337.59;;;23.71;100.00
7026;BME280;3554;42.132;24.786;2022-08-05T00:46:32;99332.41;;;23.69;100.00
7026;BME280;3554;42.132;24.786;2022-08-05T00:48:59;99328.16;;;23.76;100.00
7026;BME280;3554;42.132;24.786;2022-08-05T00:51:26;99331.38;;;23.80;100.00
7026;BME280;3554;42.132;24.786;2022-08-05T00:53:53;99327.72;;;23.81;100.00
7026;BME280;3554;42.132;24.786;2022-08-05T00:56:21;99331.78;;;23.85;100.00
7026;BME280;3554;42.132;24.786;2022-08-05T00:58:48;99331.34;;;23.89;100.00
7026;BME280;3554;42.132;24.786;2022-08-05T01:01:15;99317.88;;;23.81;100.00
7026;BME280;3554;42.132;24.786;2022-08-05T01:03:42;99330.97;;;23.75;100.00
7026;BME280;3554;42.132;24.786;2022-08-05T01:06:09;99299.56;;;23.50;100.00
7026;BME280;3554;42.132;24.786;2022-08-05T01:08:37;99323.69;;;23.67;100.00
7026;BME280;3554;42.132;24.786;2022-08-05T01:11:08;99303.75;;;23.43;100.00
7026;BME280;3554;42.132;24.786;2022-08-05T01:13:43;99334.09;;;23.61;100.00
7026;BME280;3554;42.132;24.786;2022-08-05T01:16:20;99330.56;;;23.70;100.00
7026;BME280;3554;42.132;24.786;2022-08-05T01:18:53;99328.91;;;23.59;100.00
7026;BME280;3554;42.132;24.786;2022-08-05T01:21:48;99329.78;;;23.50;100.00
7026;BME280;3554;42.132;24.786;2022-08-05T01:24:30;99318.94;;;23.52;100.00
7026;BME280;3554;42.132;24.786;2022-08-05T01:27:08;99293.00;;;23.15;100.00
7026;BME280;3554;42.132;24.786;2022-08-05T01:29:44;99329.38;;;23.45;100.00
7026;BME280;3554;42.132;24.786;2022-08-05T01:32:14;99314.19;;;23.36;100.00
7026;BME280;3554;42.132;24.786;2022-08-05T01:34:47;99310.81;;;23.44;100.00
7026;BME280;3554;42.132;24.786;2022-08-05T01:37:17;99313.75;;;23.50;100.00
7026;BME280;3554;42.132;24.786;2022-08-05T01:39:46;99329.22;;;23.56;100.00
7026;BME280;3554;42.132;24.786;2022-08-05T01:42:17;99310.56;;;23.37;100.00
7026;BME280;3554;42.132;24.786;2022-08-05T01:44:47;99337.63;;;23.52;100.00
7026;BME280;3554;42.132;24.786;2022-08-05T01:47:16;99339.63;;;23.50;100.00
7026;BME280;3554;42.132;24.786;2022-08-05T01:49:45;99333.16;;;23.43;100.00
7026;BME280;3554;42.132;24.786;2022-08-05T01:52:16;99341.06;;;23.34;100.00
7026;BME280;3554;42.132;24.786;2022-08-05T01:54:47;99297.31;;;23.16;100.00
7026;BME280;3554;42.132;24.786;2022-08-05T01:57:18;99332.03;;;23.26;100.00
7026;BME280;3554;42.132;24.786;2022-08-05T01:59:51;99333.59;;;23.28;100.00
7026;BME280;3554;42.132;24.786;2022-08-05T02:02:20;99326.53;;;23.47;100.00
7026;BME280;3554;42.132;24.786;2022-08-05T02:04:49;99318.84;;;23.24;100.00
7026;BME280;3554;42.132;24.786;2022-08-05T02:07:18;99332.03;;;23.26;100.00
7026;BME280;3554;42.132;24.786;2022-08-05T02:09:45;99333.00;;;23.25;100.00
7026;BME280;3554;42.132;24.786;2022-08-05T02:12:17;99333.88;;;23.25;100.00
7026;BME280;3554;42.132;24.786;2022-08-05T02:14:55;99318.69;;;23.16;100.00
7026;BME280;3554;42.132;24.786;2022-08-05T02:17:35;99325.06;;;22.87;100.00
7026;BME280;3554;42.132;24.786;2022-08-05T02:20:07;99316.88;;;22.60;100.00
7026;BME280;3554;42.132;24.786;2022-08-05T02:22:40;99327.59;;;22.98;100.00
7026;BME280;3554;42.132;24.786;2022-08-05T02:25:13;99329.41;;;23.07;100.00
7026;BME280;3554;42.132;24.786;2022-08-05T02:27:43;99329.41;;;23.07;100.00
7026;BME280;3554;42.132;24.786;2022-08-05T02:30:15;99319.28;;;22.91;100.00
7026;BME280;3554;42.132;24.786;2022-08-05T02:32:42;99321.53;;;22.86;100.00
7026;BME280;3554;42.132;24.786;2022-08-05T02:35:15;99332.47;;;22.93;100.00
7026;BME280;3554;42.132;24.786;2022-08-05T02:37:45;99328.84;;;22.94;100.00
7026;BME280;3554;42.132;24.786;2022-08-05T02:40:13;99322.94;;;22.81;100.00
7026;BME280;3554;42.132;24.786;2022-08-05T02:42:42;99276.13;;;22.48;100.00
7026;BME280;3554;42.132;24.786;2022-08-05T02:45:10;99315.06;;;22.79;100.00
7026;BME280;3554;42.132;24.786;2022-08-05T02:47:40;99328.81;;;22.84;100.00
7026;BME280;3554;42.132;24.786;2022-08-05T02:50:08;99319.00;;;22.75;100.00
7026;BME280;3554;42.132;24.786;2022-08-05T02:52:36;99326.59;;;22.80;100.00
7026;BME280;3554;42.132;24.786;2022-08-05T02:55:04;99331.38;;;22.76;100.00
7026;BME280;3554;42.132;24.786;2022-08-05T02:57:34;99315.03;;;22.70;100.00
7026;BME280;3554;42.132;24.786;2022-08-05T03:00:05;99326.59;;;22.80;100.00
7026;BME280;3554;42.132;24.786;2022-08-05T03:02:37;99330.09;;;22.71;100.00
7026;BME280;3554;42.132;24.786;2022-08-05T03:05:08;99331.22;;;22.68;100.00
7026;BME280;3554;42.132;24.786;2022-08-05T03:07:38;99336.13;;;22.63;100.00
7026;BME280;3554;42.132;24.786;2022-08-05T03:10:06;99332.91;;;22.69;100.00
7026;BME280;3554;42.132;24.786;2022-08-05T03:12:35;99283.25;;;22.38;100.00
7026;BME280;3554;42.132;24.786;2022-08-05T03:15:03;99326.31;;;22.64;100.00
7026;BME280;3554;42.132;24.786;2022-08-05T03:17:30;99333.53;;;22.52;100.00
7026;BME280;3554;42.132;24.786;2022-08-05T03:19:57;99334.69;;;22.50;100.00
7026;BME280;3554;42.132;24.786;2022-08-05T03:22:25;99331.59;;;22.45;100.00
7026;BME280;3554;42.132;24.786;2022-08-05T03:24:53;99338.16;;;22.41;100.00
7026;BME280;3554;42.132;24.786;2022-08-05T03:27:20;99342.78;;;22.39;100.00
7026;BME280;3554;42.132;24.786;2022-08-05T03:29:47;99335.34;;;22.42;100.00
7026;BME280;3554;42.132;24.786;2022-08-05T03:32:15;99339.16;;;22.49;100.00
7026;BME280;3554;42.132;24.786;2022-08-05T03:34:44;99339.59;;;22.54;100.00
7026;BME280;3554;42.132;24.786;2022-08-05T03:37:11;99325.66;;;22.31;100.00
7026;BME280;3554;42.132;24.786;2022-08-05T03:39:50;99319.81;;;22.07;100.00
7026;BME280;3554;42.132;24.786;2022-08-05T03:42:17;99342.75;;;22.29;100.00
7026;BME280;3554;42.132;24.786;2022-08-05T03:44:44;99341.66;;;22.41;100.00
7026;BME280;3554;42.132;24.786;2022-08-05T03:47:11;99339.00;;;22.41;100.00
7026;BME280;3554;42.132;24.786;2022-08-05T03:49:38;99342.72;;;22.59;100.00
7026;BME280;3554;42.132;24.786;2022-08-05T03:52:09;99320.13;;;22.92;100.00
7026;BME280;3554;42.132;24.786;2022-08-05T03:54:42;99351.19;;;23.31;100.00
7026;BME280;3554;42.132;24.786;2022-08-05T03:57:11;99350.84;;;23.63;100.00
7026;BME280;3554;42.132;24.786;2022-08-05T03:59:41;99349.22;;;23.89;100.00
7026;BME280;3554;42.132;24.786;2022-08-05T04:02:09;99351.25;;;24.14;100.00
7026;BME280;3554;42.132;24.786;2022-08-05T04:04:37;99339.16;;;24.37;100.00
7026;BME280;3554;42.132;24.786;2022-08-05T04:07:05;99341.09;;;24.62;100.00
7026;BME280;3554;42.132;24.786;2022-08-05T04:09:34;99346.19;;;24.65;100.00
7026;BME280;3554;42.132;24.786;2022-08-05T04:12:02;99332.19;;;24.71;100.00
7026;BME280;3554;42.132;24.786;2022-08-05T04:14:30;99340.69;;;25.02;100.00
7026;BME280;3554;42.132;24.786;2022-08-05T04:16:58;99339.91;;;25.45;98.25
7026;BME280;3554;42.132;24.786;2022-08-05T04:19:26;99338.38;;;25.42;96.49
7026;BME280;3554;42.132;24.786;2022-08-05T04:21:53;99348.41;;;25.22;97.38
7026;BME280;3554;42.132;24.786;2022-08-05T04:24:20;99335.22;;;25.47;95.79
7026;BME280;3554;42.132;24.786;2022-08-05T04:26:47;99336.63;;;25.51;95.02
7026;BME280;3554;42.132;24.786;2022-08-05T04:29:15;99329.31;;;25.69;93.12
7026;BME280;3554;42.132;24.786;2022-08-05T04:31:42;99334.34;;;25.97;90.28
7026;BME280;3554;42.132;24.786;2022-08-05T04:34:09;99331.38;;;26.34;88.08
7026;BME280;3554;42.132;24.786;2022-08-05T04:36:35;99341.59;;;26.88;83.30
7026;BME280;3554;42.132;24.786;2022-08-05T04:39:02;99317.94;;;27.00;77.89
7026;BME280;3554;42.132;24.786;2022-08-05T04:41:29;99339.97;;;27.52;72.78
7026;BME280;3554;42.132;24.786;2022-08-05T04:43:56;99331.22;;;27.41;71.58
7026;BME280;3554;42.132;24.786;2022-08-05T04:46:25;99335.09;;;27.55;73.88
7026;BME280;3554;42.132;24.786;2022-08-05T04:48:51;99343.31;;;27.70;70.49
7026;BME280;3554;42.132;24.786;2022-08-05T04:51:18;99336.91;;;27.55;69.85
7026;BME280;3554;42.132;24.786;2022-08-05T04:53:45;99343.25;;;27.86;67.79
7026;BME280;3554;42.132;24.786;2022-08-05T04:56:12;99343.75;;;27.89;67.09
7026;BME280;3554;42.132;24.786;2022-08-05T04:58:39;99344.78;;;27.96;65.38
7026;BME280;3554;42.132;24.786;2022-08-05T05:01:06;99340.03;;;27.90;65.48
7026;BME280;3554;42.132;24.786;2022-08-05T05:03:34;99351.22;;;28.26;64.53
7026;BME280;3554;42.132;24.786;2022-08-05T05:06:01;99334.81;;;28.43;63.82
7026;BME280;3554;42.132;24.786;2022-08-05T05:08:28;99353.09;;;29.17;59.77
7026;BME280;3554;42.132;24.786;2022-08-05T05:10:55;99347.44;;;29.49;59.10
7026;BME280;3554;42.132;24.786;2022-08-05T05:13:22;99325.75;;;29.58;56.30
7026;BME280;3554;42.132;24.786;2022-08-05T05:15:49;99345.16;;;29.76;55.90
7026;BME280;3554;42.132;24.786;2022-08-05T05:18:16;99349.34;;;28.96;58.57
7026;BME280;3554;42.132;24.786;2022-08-05T05:20:45;99353.31;;;28.85;60.49
7026;BME280;3554;42.132;24.786;2022-08-05T05:23:12;99342.34;;;28.87;61.46
7026;BME280;3554;42.132;24.786;2022-08-05T05:25:40;99334.50;;;29.22;60.23
7026;BME280;3554;42.132;24.786;2022-08-05T05:28:07;99336.22;;;29.75;57.96
7026;BME280;3554;42.132;24.786;2022-08-05T05:30:34;99321.88;;;29.23;59.74
7026;BME280;3554;42.132;24.786;2022-08-05T05:33:03;99334.63;;;29.29;59.03
7026;BME280;3554;42.132;24.786;2022-08-05T05:35:30;99324.66;;;29.67;57.00
7026;BME280;3554;42.132;24.786;2022-08-05T05:38:00;99338.53;;;29.64;56.83
7026;BME280;3554;42.132;24.786;2022-08-05T05:40:30;99305.81;;;29.07;59.99
7026;BME280;3554;42.132;24.786;2022-08-05T05:42:57;99334.22;;;29.55;58.34
7026;BME280;3554;42.132;24.786;2022-08-05T05:45:25;99330.41;;;29.04;59.07
7026;BME280;3554;42.132;24.786;2022-08-05T05:47:52;99337.06;;;28.93;60.76
7026;BME280;3554;42.132;24.786;2022-08-05T05:50:19;99342.47;;;29.38;59.38
7026;BME280;3554;42.132;24.786;2022-08-05T05:52:46;99305.97;;;29.94;56.11
7026;BME280;3554;42.132;24.786;2022-08-05T05:55:16;99342.69;;;30.32;53.65
7026;BME280;3554;42.132;24.786;2022-08-05T05:57:45;99337.91;;;30.20;53.09
7026;BME280;3554;42.132;24.786;2022-08-05T06:00:15;99352.81;;;30.45;53.03
7026;BME280;3554;42.132;24.786;2022-08-05T06:02:42;99302.13;;;30.47;51.58
7026;BME280;3554;42.132;24.786;2022-08-05T06:05:11;99336.47;;;30.53;51.72
7026;BME280;3554;42.132;24.786;2022-08-05T06:07:38;99352.44;;;30.48;51.52
7026;BME280;3554;42.132;24.786;2022-08-05T06:10:06;99317.16;;;30.35;52.06
7026;BME280;3554;42.132;24.786;2022-08-05T06:12:36;99338.66;;;30.28;51.55
7026;BME280;3554;42.132;24.786;2022-08-05T06:15:05;99327.31;;;30.04;52.34
7026;BME280;3554;42.132;24.786;2022-08-05T06:17:32;99336.59;;;30.01;54.61
7026;BME280;3554;42.132;24.786;2022-08-05T06:19:59;99336.28;;;29.67;56.73
7026;BME280;3554;42.132;24.786;2022-08-05T06:22:28;99309.56;;;29.58;56.09
7026;BME280;3554;42.132;24.786;2022-08-05T06:24:55;99343.78;;;30.09;54.68
7026;BME280;3554;42.132;24.786;2022-08-05T06:27:22;99329.38;;;30.31;55.04
7026;BME280;3554;42.132;24.786;2022-08-05T06:29:50;99330.25;;;29.94;55.10
7026;BME280;3554;42.132;24.786;2022-08-05T06:32:18;99332.97;;;30.09;55.10
7026;BME280;3554;42.132;24.786;2022-08-05T06:34:44;99327.28;;;29.89;55.97
7026;BME280;3554;42.132;24.786;2022-08-05T06:37:11;99337.47;;;30.31;55.42
7026;BME280;3554;42.132;24.786;2022-08-05T06:39:38;99320.31;;;29.95;55.81
7026;BME280;3554;42.132;24.786;2022-08-05T06:42:05;99330.00;;;30.18;55.59
7026;BME280;3554;42.132;24.786;2022-08-05T06:44:32;99318.34;;;30.47;54.84
7026;BME280;3554;42.132;24.786;2022-08-05T06:47:00;99332.38;;;31.14;53.23
7026;BME280;3554;42.132;24.786;2022-08-05T06:49:27;99345.47;;;30.89;53.12
7026;BME280;3554;42.132;24.786;2022-08-05T06:51:54;99346.25;;;31.04;52.63
7026;BME280;3554;42.132;24.786;2022-08-05T06:54:21;99343.59;;;31.32;51.61
7026;BME280;3554;42.132;24.786;2022-08-05T06:56:48;99344.31;;;31.40;52.63
7026;BME280;3554;42.132;24.786;2022-08-05T06:59:15;99332.19;;;31.58;50.91
7026;BME280;3554;42.132;24.786;2022-08-05T07:01:41;99345.78;;;31.71;50.70
7026;BME280;3554;42.132;24.786;2022-08-05T07:04:10;99337.22;;;31.18;50.73
7026;BME280;3554;42.132;24.786;2022-08-05T07:06:37;99345.03;;;31.49;51.53
7026;BME280;3554;42.132;24.786;2022-08-05T07:09:04;99336.19;;;31.19;51.57
7026;BME280;3554;42.132;24.786;2022-08-05T07:11:32;99338.16;;;31.32;51.86
7026;BME280;3554;42.132;24.786;2022-08-05T07:13:58;99340.22;;;31.51;52.00
7026;BME280;3554;42.132;24.786;2022-08-05T07:16:43;99342.03;;;31.93;50.84
7026;BME280;3554;42.132;24.786;2022-08-05T07:19:19;99340.44;;;32.05;49.13
7026;BME280;3554;42.132;24.786;2022-08-05T07:21:47;99338.28;;;31.94;49.04
7026;BME280;3554;42.132;24.786;2022-08-05T07:24:14;99347.41;;;31.65;48.93
7026;BME280;3554;42.132;24.786;2022-08-05T07:26:43;99325.72;;;31.59;48.57
7026;BME280;3554;42.132;24.786;2022-08-05T07:29:10;99342.09;;;31.78;48.21
7026;BME280;3554;42.132;24.786;2022-08-05T07:31:38;99340.78;;;31.68;48.12
7026;BME280;3554;42.132;24.786;2022-08-05T07:34:05;99336.84;;;31.98;48.11
7026;BME280;3554;42.132;24.786;2022-08-05T07:36:33;99329.63;;;31.77;50.02
7026;BME280;3554;42.132;24.786;2022-08-05T07:39:00;99334.72;;;31.66;49.09
7026;BME280;3554;42.132;24.786;2022-08-05T07:41:28;99327.06;;;31.97;48.86
7026;BME280;3554;42.132;24.786;2022-08-05T07:43:56;99316.72;;;31.79;47.19
7026;BME280;3554;42.132;24.786;2022-08-05T07:46:25;99332.63;;;31.89;48.77
7026;BME280;3554;42.132;24.786;2022-08-05T07:48:53;99335.06;;;31.84;48.56
7026;BME280;3554;42.132;24.786;2022-08-05T07:51:20;99336.38;;;32.22;47.97
7026;BME280;3554;42.132;24.786;2022-08-05T07:53:49;99327.16;;;32.57;46.74
7026;BME280;3554;42.132;24.786;2022-08-05T07:56:16;99326.16;;;32.71;45.70
7026;BME280;3554;42.132;24.786;2022-08-05T07:58:42;99328.19;;;32.56;45.61
7026;BME280;3554;42.132;24.786;2022-08-05T08:01:09;99327.81;;;32.59;46.77
7026;BME280;3554;42.132;24.786;2022-08-05T08:03:36;99315.75;;;32.81;46.60
7026;BME280;3554;42.132;24.786;2022-08-05T08:06:03;99327.59;;;32.67;44.55
7026;BME280;3554;42.132;24.786;2022-08-05T08:08:30;99320.94;;;32.76;44.71
7026;BME280;3554;42.132;24.786;2022-08-05T08:10:58;99330.03;;;33.16;43.45
7026;BME280;3554;42.132;24.786;2022-08-05T08:13:25;99319.56;;;33.13;43.45
7026;BME280;3554;42.132;24.786;2022-08-05T08:15:52;99325.88;;;33.20;42.87
7026;BME280;3554;42.132;24.786;2022-08-05T08:18:19;99324.59;;;33.09;43.64
7026;BME280;3554;42.132;24.786;2022-08-05T08:20:46;99320.53;;;32.79;43.21
7026;BME280;3554;42.132;24.786;2022-08-05T08:23:13;99317.50;;;33.08;44.67
7026;BME280;3554;42.132;24.786;2022-08-05T08:25:42;99323.97;;;33.40;42.95
7026;BME280;3554;42.132;24.786;2022-08-05T08:28:10;99315.88;;;33.46;43.25
7026;BME280;3554;42.132;24.786;2022-08-05T08:30:37;99305.81;;;33.40;42.18
7026;BME280;3554;42.132;24.786;2022-08-05T08:33:08;99303.72;;;33.42;43.20
7026;BME280;3554;42.132;24.786;2022-08-05T08:35:35;99307.72;;;33.60;43.33
7026;BME280;3554;42.132;24.786;2022-08-05T08:38:02;99297.59;;;32.82;42.81
7026;BME280;3554;42.132;24.786;2022-08-05T08:40:31;99299.13;;;32.97;44.78
7026;BME280;3554;42.132;24.786;2022-08-05T08:42:59;99298.81;;;32.66;45.43
7026;BME280;3554;42.132;24.786;2022-08-05T08:45:29;99290.34;;;32.95;43.29
7026;BME280;3554;42.132;24.786;2022-08-05T08:47:57;99294.97;;;33.21;42.20
7026;BME280;3554;42.132;24.786;2022-08-05T08:50:28;99299.94;;;33.04;42.15
7026;BME280;3554;42.132;24.786;2022-08-05T08:53:00;99278.88;;;33.39;43.54
7026;BME280;3554;42.132;24.786;2022-08-05T08:55:29;99283.06;;;33.68;42.71
7026;BME280;3554;42.132;24.786;2022-08-05T08:57:57;99287.22;;;33.77;41.25
7026;BME280;3554;42.132;24.786;2022-08-05T09:00:24;99286.81;;;33.67;40.02
7026;BME280;3554;42.132;24.786;2022-08-05T09:02:53;99274.31;;;33.39;40.03
7026;BME280;3554;42.132;24.786;2022-08-05T09:05:20;99277.44;;;33.43;39.75
7026;BME280;3554;42.132;24.786;2022-08-05T09:07:47;99282.66;;;33.64;39.30
7026;BME280;3554;42.132;24.786;2022-08-05T09:10:16;99273.28;;;33.53;37.65
7026;BME280;3554;42.132;24.786;2022-08-05T09:12:43;99259.06;;;33.19;39.25
7026;BME280;3554;42.132;24.786;2022-08-05T09:15:10;99263.59;;;32.19;39.46
7026;BME280;3554;42.132;24.786;2022-08-05T09:17:37;99258.88;;;32.40;40.07
7026;BME280;3554;42.132;24.786;2022-08-05T09:20:08;99254.19;;;32.69;39.39
7026;BME280;3554;42.132;24.786;2022-08-05T09:23:09;99250.69;;;33.20;40.31
7026;BME280;3554;42.132;24.786;2022-08-05T09:25:38;99192.44;;;32.90;39.29
7026;BME280;3554;42.132;24.786;2022-08-05T09:28:10;99246.09;;;33.40;38.96
7026;BME280;3554;42.132;24.786;2022-08-05T09:30:41;99245.44;;;32.80;39.23
7026;BME280;3554;42.132;24.786;2022-08-05T09:33:08;99242.25;;;32.50;39.72
7026;BME280;3554;42.132;24.786;2022-08-05T09:35:36;99237.91;;;32.69;39.83
7026;BME280;3554;42.132;24.786;2022-08-05T09:38:05;99235.41;;;32.67;40.16
7026;BME280;3554;42.132;24.786;2022-08-05T09:40:34;99239.81;;;32.68;40.22
7026;BME280;3554;42.132;24.786;2022-08-05T09:43:02;99236.84;;;32.63;39.66
7026;BME280;3554;42.132;24.786;2022-08-05T09:45:36;99229.16;;;32.80;39.38
7026;BME280;3554;42.132;24.786;2022-08-05T09:48:21;99222.75;;;33.07;39.66
7026;BME280;3554;42.132;24.786;2022-08-05T09:50:53;99227.72;;;33.42;39.21
7026;BME280;3554;42.132;24.786;2022-08-05T09:53:20;99217.09;;;33.21;38.78
7026;BME280;3554;42.132;24.786;2022-08-05T09:55:50;99218.94;;;33.60;38.76
7026;BME280;3554;42.132;24.786;2022-08-05T09:58:17;99214.88;;;33.89;38.33
7026;BME280;3554;42.132;24.786;2022-08-05T10:00:52;99201.28;;;34.02;36.66
7026;BME280;3554;42.132;24.786;2022-08-05T10:03:20;99190.88;;;33.86;37.12
7026;BME280;3554;42.132;24.786;2022-08-05T10:06:01;99219.31;;;34.27;36.41
7026;BME280;3554;42.132;24.786;2022-08-05T10:08:29;99221.41;;;34.32;35.76
7026;BME280;3554;42.132;24.786;2022-08-05T10:10:57;99213.53;;;34.11;36.15
7026;BME280;3554;42.132;24.786;2022-08-05T10:13:29;99209.44;;;33.95;36.63
7026;BME280;3554;42.132;24.786;2022-08-05T10:15:57;99214.66;;;34.41;36.38
7026;BME280;3554;42.132;24.786;2022-08-05T10:18:25;99119.31;;;34.05;35.43
7026;BME280;3554;42.132;24.786;2022-08-05T10:20:58;99202.94;;;34.72;35.26
7026;BME280;3554;42.132;24.786;2022-08-05T10:23:29;99198.00;;;34.93;34.73
7026;BME280;3554;42.132;24.786;2022-08-05T10:25:56;99177.63;;;35.02;34.68
7026;BME280;3554;42.132;24.786;2022-08-05T10:28:24;99194.63;;;34.29;35.62
7026;BME280;3554;42.132;24.786;2022-08-05T10:30:52;99193.66;;;33.66;36.40
7026;BME280;3554;42.132;24.786;2022-08-05T10:33:21;99191.53;;;33.75;36.91
7026;BME280;3554;42.132;24.786;2022-08-05T10:35:50;99189.28;;;34.16;36.07
7026;BME280;3554;42.132;24.786;2022-08-05T10:38:18;99191.19;;;34.46;34.27
7026;BME280;3554;42.132;24.786;2022-08-05T10:41:06;99190.72;;;34.87;33.98
7026;BME280;3554;42.132;24.786;2022-08-05T10:43:41;99186.16;;;34.81;33.69
7026;BME280;3554;42.132;24.786;2022-08-05T10:46:14;99170.69;;;34.75;34.63
7026;BME280;3554;42.132;24.786;2022-08-05T10:48:43;99181.84;;;34.98;34.66
7026;BME280;3554;42.132;24.786;2022-08-05T10:51:12;99181.03;;;34.98;34.52
7026;BME280;3554;42.132;24.786;2022-08-05T10:53:41;99165.13;;;34.95;34.18
7026;BME280;3554;42.132;24.786;2022-08-05T10:56:13;99180.97;;;34.73;34.67
7026;BME280;3554;42.132;24.786;2022-08-05T10:58:48;99171.97;;;34.41;35.19
7026;BME280;3554;42.132;24.786;2022-08-05T11:01:16;99170.59;;;33.82;35.52
7026;BME280;3554;42.132;24.786;2022-08-05T11:03:59;99162.97;;;34.10;35.24
7026;BME280;3554;42.132;24.786;2022-08-05T11:06:26;99168.50;;;34.28;34.79
7026;BME280;3554;42.132;24.786;2022-08-05T11:09:13;99168.25;;;33.92;35.81
7026;BME280;3554;42.132;24.786;2022-08-05T11:11:45;99161.56;;;34.01;36.10
7026;BME280;3554;42.132;24.786;2022-08-05T11:14:13;99102.56;;;34.08;36.06
7026;BME280;3554;42.132;24.786;2022-08-05T11:19:48;99151.94;;;35.16;34.81
7026;BME280;3554;42.132;24.786;2022-08-05T11:22:39;99125.75;;;34.97;34.22
7026;BME280;3554;42.132;24.786;2022-08-05T11:25:28;99149.66;;;35.13;34.42
7026;BME280;3554;42.132;24.786;2022-08-05T11:31:18;99133.78;;;34.86;34.65
7026;BME280;3554;42.132;24.786;2022-08-05T11:33:53;99145.13;;;35.25;33.72
7026;BME280;3554;42.132;24.786;2022-08-05T11:36:21;99127.69;;;35.33;33.29
7026;BME280;3554;42.132;24.786;2022-08-05T11:39:04;99145.78;;;35.82;32.89
7026;BME280;3554;42.132;24.786;2022-08-05T11:41:31;99129.72;;;36.21;32.55
7026;BME280;3554;42.132;24.786;2022-08-05T11:44:02;99137.31;;;36.49;32.14
7026;BME280;3554;42.132;24.786;2022-08-05T11:46:32;99145.22;;;36.39;31.14
7026;BME280;3554;42.132;24.786;2022-08-05T11:49:00;99129.78;;;36.03;32.10
7026;BME280;3554;42.132;24.786;2022-08-05T11:51:28;99128.16;;;35.30;33.13
7026;BME280;3554;42.132;24.786;2022-08-05T11:53:55;99127.03;;;34.95;33.09
7026;BME280;3554;42.132;24.786;2022-08-05T11:56:22;99123.19;;;35.02;33.44
7026;BME280;3554;42.132;24.786;2022-08-05T11:58:50;99082.78;;;34.57;33.88
7026;BME280;3554;42.132;24.786;2022-08-05T12:01:19;99126.69;;;35.27;33.29
7026;BME280;3554;42.132;24.786;2022-08-05T12:03:48;99118.28;;;35.29;33.42
7026;BME280;3554;42.132;24.786;2022-08-05T12:06:17;99127.22;;;35.36;33.05
7026;BME280;3554;42.132;24.786;2022-08-05T12:08:46;99122.88;;;35.53;33.20
7026;BME280;3554;42.132;24.786;2022-08-05T12:11:18;99107.81;;;35.50;32.86
7026;BME280;3554;42.132;24.786;2022-08-05T12:13:55;99107.78;;;35.32;33.32
7026;BME280;3554;42.132;24.786;2022-08-05T12:16:25;99106.31;;;35.54;32.86
7026;BME280;3554;42.132;24.786;2022-08-05T12:18:53;99105.34;;;35.06;33.58
7026;BME280;3554;42.132;24.786;2022-08-05T12:21:24;99069.63;;;34.96;33.37
7026;BME280;3554;42.132;24.786;2022-08-05T12:23:52;99101.50;;;35.32;33.51
7026;BME280;3554;42.132;24.786;2022-08-05T12:26:19;99098.41;;;35.10;34.56
7026;BME280;3554;42.132;24.786;2022-08-05T12:28:46;99094.28;;;35.44;33.61
7026;BME280;3554;42.132;24.786;2022-08-05T12:31:13;99094.91;;;35.39;33.24
7026;BME280;3554;42.132;24.786;2022-08-05T12:33:43;99087.84;;;35.57;33.00
7026;BME280;3554;42.132;24.786;2022-08-05T12:36:10;99092.03;;;35.16;33.27
7026;BME280;3554;42.132;24.786;2022-08-05T12:38:38;99084.72;;;35.35;33.21
7026;BME280;3554;42.132;24.786;2022-08-05T12:41:07;99088.03;;;35.73;33.55
7026;BME280;3554;42.132;24.786;2022-08-05T12:43:47;99082.66;;;35.30;34.11
7026;BME280;3554;42.132;24.786;2022-08-05T12:46:20;99072.38;;;35.32;33.95
7026;BME280;3554;42.132;24.786;2022-08-05T12:48:55;99064.81;;;35.16;33.59
7026;BME280;3554;42.132;24.786;2022-08-05T12:51:22;99045.31;;;34.77;34.22
7026;BME280;3554;42.132;24.786;2022-08-05T12:53:49;99078.13;;;35.06;33.95
7026;BME280;3554;42.132;24.786;2022-08-05T12:56:17;99069.03;;;35.30;33.91
7026;BME280;3554;42.132;24.786;2022-08-05T12:58:44;99056.66;;;35.16;33.80
7026;BME280;3554;42.132;24.786;2022-08-05T13:01:14;99046.91;;;34.66;34.67
7026;BME280;3554;42.132;24.786;2022-08-05T13:03:41;99060.59;;;35.02;34.59
7026;BME280;3554;42.132;24.786;2022-08-05T13:06:11;99058.06;;;35.55;33.46
7026;BME280;3554;42.132;24.786;2022-08-05T13:08:38;99058.88;;;35.74;33.12
7026;BME280;3554;42.132;24.786;2022-08-05T13:11:05;99038.28;;;35.48;32.89
7026;BME280;3554;42.132;24.786;2022-08-05T13:13:36;99054.44;;;35.61;32.97
7026;BME280;3554;42.132;24.786;2022-08-05T13:16:11;99041.16;;;34.99;33.15
7026;BME280;3554;42.132;24.786;2022-08-05T13:18:38;99043.13;;;35.28;32.91
7026;BME280;3554;42.132;24.786;2022-08-05T13:21:07;99045.06;;;35.57;32.25
7026;BME280;3554;42.132;24.786;2022-08-05T13:23:35;99045.00;;;35.27;31.49
7026;BME280;3554;42.132;24.786;2022-08-05T13:26:02;99039.22;;;35.42;31.72